sensor_id;sensor_type;location;lat;lon;timestamp;P1;durP1;ratioP1;P2;durP2;ratioP2
18259;SDS011;9256;52.236;5.712;2024-02-15T00:01:40;39.30;;;12.23;;
18259;SDS011;9256;52.236;5.712;2024-02-15T00:04:15;44.15;;;15.30;;
18259;SDS011;9256;52.236;5.712;2024-02-15T00:06:48;41.13;;;12.35;;
18259;SDS011;9256;52.236;5.712;2024-02-15T00:09:22;41.17;;;12.00;;
18259;SDS011;9256;52.236;5.712;2024-02-15T00:11:54;44.35;;;12.13;;
18259;SDS011;9256;52.236;5.712;2024-02-15T00:14:44;36.75;;;12.00;;
18259;SDS011;9256;52.236;5.712;2024-02-15T00:17:21;35.72;;;11.18;;
18259;SDS011;9256;52.236;5.712;2024-02-15T00:19:51;42.50;;;14.48;;
18259;SDS011;9256;52.236;5.712;2024-02-15T00:22:26;39.70;;;12.32;;
18259;SDS011;9256;52.236;5.712;2024-02-15T00:25:00;31.98;;;11.38;;
18259;SDS011;9256;52.236;5.712;2024-02-15T00:27:30;33.88;;;11.40;;
18259;SDS011;9256;52.236;5.712;2024-02-15T00:30:13;37.08;;;11.68;;
18259;SDS011;9256;52.236;5.712;2024-02-15T00:32:43;39.67;;;12.25;;
18259;SDS011;9256;52.236;5.712;2024-02-15T00:35:23;39.72;;;11.75;;
18259;SDS011;9256;52.236;5.712;2024-02-15T00:38:04;32.53;;;11.63;;
18259;SDS011;9256;52.236;5.712;2024-02-15T00:40:57;32.80;;;11.68;;
18259;SDS011;9256;52.236;5.712;2024-02-15T00:43:32;38.45;;;12.02;;
18259;SDS011;9256;52.236;5.712;2024-02-15T00:46:06;32.20;;;11.02;;
18259;SDS011;9256;52.236;5.712;2024-02-15T00:48:34;35.03;;;11.80;;
18259;SDS011;9256;52.236;5.712;2024-02-15T00:51:11;40.75;;;12.40;;
18259;SDS011;9256;52.236;5.712;2024-02-15T00:53:44;31.02;;;11.75;;
18259;SDS011;9256;52.236;5.712;2024-02-15T00:56:47;33.33;;;11.77;;
18259;SDS011;9256;52.236;5.712;2024-02-15T00:59:09;36.83;;;12.40;;
18259;SDS011;9256;52.236;5.712;2024-02-15T01:01:41;36.10;;;12.68;;
18259;SDS011;9256;52.236;5.712;2024-02-15T01:04:10;34.70;;;12.25;;
18259;SDS011;9256;52.236;5.712;2024-02-15T01:06:53;38.53;;;12.93;;
18259;SDS011;9256;52.236;5.712;2024-02-15T01:09:30;36.35;;;12.43;;
18259;SDS011;9256;52.236;5.712;2024-02-15T01:12:03;37.28;;;12.82;;
18259;SDS011;9256;52.236;5.712;2024-02-15T01:14:44;39.03;;;13.07;;
18259;SDS011;9256;52.236;5.712;2024-02-15T01:17:17;33.92;;;12.30;;
18259;SDS011;9256;52.236;5.712;2024-02-15T01:19:46;34.00;;;12.52;;
18259;SDS011;9256;52.236;5.712;2024-02-15T01:22:19;38.13;;;12.88;;
18259;SDS011;9256;52.236;5.712;2024-02-15T01:25:06;35.25;;;12.63;;
18259;SDS011;9256;52.236;5.712;2024-02-15T01:27:35;40.63;;;12.25;;
18259;SDS011;9256;52.236;5.712;2024-02-15T01:30:13;37.28;;;12.93;;
18259;SDS011;9256;52.236;5.712;2024-02-15T01:32:46;35.47;;;12.43;;
18259;SDS011;9256;52.236;5.712;2024-02-15T01:35:22;35.30;;;12.75;;
18259;SDS011;9256;52.236;5.712;2024-02-15T01:38:02;37.65;;;13.07;;
18259;SDS011;9256;52.236;5.712;2024-02-15T01:40:50;32.25;;;13.23;;
18259;SDS011;9256;52.236;5.712;2024-02-15T01:43:17;40.00;;;16.13;;
18259;SDS011;9256;52.236;5.712;2024-02-15T01:45:48;38.35;;;13.85;;
18259;SDS011;9256;52.236;5.712;2024-02-15T01:48:28;39.30;;;13.57;;
18259;SDS011;9256;52.236;5.712;2024-02-15T01:51:06;33.30;;;13.63;;
18259;SDS011;9256;52.236;5.712;2024-02-15T01:53:36;44.92;;;18.30;;
18259;SDS011;9256;52.236;5.712;2024-02-15T01:56:11;44.92;;;16.98;;
18259;SDS011;9256;52.236;5.712;2024-02-15T01:58:43;47.38;;;18.33;;
18259;SDS011;9256;52.236;5.712;2024-02-15T02:01:18;47.58;;;17.27;;
18259;SDS011;9256;52.236;5.712;2024-02-15T02:03:52;45.78;;;17.27;;
18259;SDS011;9256;52.236;5.712;2024-02-15T02:06:22;48.33;;;19.60;;
18259;SDS011;9256;52.236;5.712;2024-02-15T02:08:54;50.15;;;19.15;;
18259;SDS011;9256;52.236;5.712;2024-02-15T02:11:29;54.63;;;20.55;;
18259;SDS011;9256;52.236;5.712;2024-02-15T02:14:11;53.13;;;20.27;;
18259;SDS011;9256;52.236;5.712;2024-02-15T02:16:46;56.17;;;20.77;;
18259;SDS011;9256;52.236;5.712;2024-02-15T02:19:16;56.92;;;21.85;;
18259;SDS011;9256;52.236;5.712;2024-02-15T02:21:49;55.65;;;21.42;;
18259;SDS011;9256;52.236;5.712;2024-02-15T02:24:39;61.30;;;23.85;;
18259;SDS011;9256;52.236;5.712;2024-02-15T02:27:13;61.33;;;22.27;;
18259;SDS011;9256;52.236;5.712;2024-02-15T02:29:48;59.13;;;22.63;;
18259;SDS011;9256;52.236;5.712;2024-02-15T02:32:18;60.47;;;22.70;;
18259;SDS011;9256;52.236;5.712;2024-02-15T02:35:07;58.10;;;22.38;;
18259;SDS011;9256;52.236;5.712;2024-02-15T02:37:53;61.47;;;22.73;;
18259;SDS011;9256;52.236;5.712;2024-02-15T02:40:22;54.75;;;22.40;;
18259;SDS011;9256;52.236;5.712;2024-02-15T02:42:54;59.58;;;22.33;;
18259;SDS011;9256;52.236;5.712;2024-02-15T02:45:24;61.20;;;22.33;;
18259;SDS011;9256;52.236;5.712;2024-02-15T02:47:57;58.63;;;21.45;;
18259;SDS011;9256;52.236;5.712;2024-02-15T02:50:36;54.47;;;20.83;;
18259;SDS011;9256;52.236;5.712;2024-02-15T02:53:50;56.58;;;21.73;;
18259;SDS011;9256;52.236;5.712;2024-02-15T02:56:29;51.75;;;21.30;;
18259;SDS011;9256;52.236;5.712;2024-02-15T02:59:15;55.53;;;20.02;;
18259;SDS011;9256;52.236;5.712;2024-02-15T03:02:03;51.42;;;20.17;;
18259;SDS011;9256;52.236;5.712;2024-02-15T03:04:37;53.20;;;20.42;;
18259;SDS011;9256;52.236;5.712;2024-02-15T03:07:32;61.72;;;23.98;;
18259;SDS011;9256;52.236;5.712;2024-02-15T03:10:13;50.58;;;19.80;;
18259;SDS011;9256;52.236;5.712;2024-02-15T03:12:43;48.30;;;20.48;;
18259;SDS011;9256;52.236;5.712;2024-02-15T03:15:15;45.47;;;18.60;;
18259;SDS011;9256;52.236;5.712;2024-02-15T03:17:58;47.03;;;18.05;;
18259;SDS011;9256;52.236;5.712;2024-02-15T03:20:27;47.30;;;18.10;;
18259;SDS011;9256;52.236;5.712;2024-02-15T03:22:56;49.10;;;17.65;;
18259;SDS011;9256;52.236;5.712;2024-02-15T03:25:42;47.45;;;17.10;;
18259;SDS011;9256;52.236;5.712;2024-02-15T03:28:09;45.38;;;17.02;;
18259;SDS011;9256;52.236;5.712;2024-02-15T03:30:43;46.13;;;17.27;;
18259;SDS011;9256;52.236;5.712;2024-02-15T03:33:32;45.05;;;16.77;;
18259;SDS011;9256;52.236;5.712;2024-02-15T03:36:05;44.75;;;17.40;;
18259;SDS011;9256;52.236;5.712;2024-02-15T03:38:51;46.13;;;16.92;;
18259;SDS011;9256;52.236;5.712;2024-02-15T03:41:31;50.10;;;17.38;;
18259;SDS011;9256;52.236;5.712;2024-02-15T03:44:00;40.58;;;15.93;;
18259;SDS011;9256;52.236;5.712;2024-02-15T03:46:37;42.40;;;15.95;;
18259;SDS011;9256;52.236;5.712;2024-02-15T03:49:21;41.22;;;16.02;;
18259;SDS011;9256;52.236;5.712;2024-02-15T03:51:52;48.83;;;15.77;;
18259;SDS011;9256;52.236;5.712;2024-02-15T03:54:26;42.67;;;15.25;;
18259;SDS011;9256;52.236;5.712;2024-02-15T03:57:08;45.47;;;15.25;;
18259;SDS011;9256;52.236;5.712;2024-02-15T03:59:42;48.85;;;20.45;;
18259;SDS011;9256;52.236;5.712;2024-02-15T04:02:19;43.42;;;16.30;;
18259;SDS011;9256;52.236;5.712;2024-02-15T04:04:57;45.95;;;15.43;;
18259;SDS011;9256;52.236;5.712;2024-02-15T04:07:30;48.85;;;15.23;;
18259;SDS011;9256;52.236;5.712;2024-02-15T04:09:59;43.88;;;15.65;;
18259;SDS011;9256;52.236;5.712;2024-02-15T04:12:39;44.78;;;15.82;;
18259;SDS011;9256;52.236;5.712;2024-02-15T04:15:11;44.40;;;14.52;;
18259;SDS011;9256;52.236;5.712;2024-02-15T04:20:29;38.13;;;14.05;;
18259;SDS011;9256;52.236;5.712;2024-02-15T04:23:25;35.55;;;13.70;;
18259;SDS011;9256;52.236;5.712;2024-02-15T04:25:58;42.40;;;14.13;;
18259;SDS011;9256;52.236;5.712;2024-02-15T04:28:30;40.35;;;13.85;;
18259;SDS011;9256;52.236;5.712;2024-02-15T04:31:25;43.80;;;14.95;;
18259;SDS011;9256;52.236;5.712;2024-02-15T04:34:07;38.67;;;13.77;;
18259;SDS011;9256;52.236;5.712;2024-02-15T04:36:43;38.00;;;14.02;;
18259;SDS011;9256;52.236;5.712;2024-02-15T04:39:15;38.95;;;13.15;;
18259;SDS011;9256;52.236;5.712;2024-02-15T04:41:51;36.45;;;13.07;;
18259;SDS011;9256;52.236;5.712;2024-02-15T04:44:29;39.28;;;13.43;;
18259;SDS011;9256;52.236;5.712;2024-02-15T04:47:14;33.83;;;12.52;;
18259;SDS011;9256;52.236;5.712;2024-02-15T04:49:49;34.90;;;12.18;;
18259;SDS011;9256;52.236;5.712;2024-02-15T04:52:22;35.58;;;11.88;;
18259;SDS011;9256;52.236;5.712;2024-02-15T04:54:52;36.83;;;12.10;;
18259;SDS011;9256;52.236;5.712;2024-02-15T04:57:24;37.70;;;11.77;;
18259;SDS011;9256;52.236;5.712;2024-02-15T04:59:53;34.22;;;11.93;;
18259;SDS011;9256;52.236;5.712;2024-02-15T05:02:25;30.90;;;12.70;;
18259;SDS011;9256;52.236;5.712;2024-02-15T05:07:51;34.85;;;11.65;;
18259;SDS011;9256;52.236;5.712;2024-02-15T05:10:22;35.97;;;11.95;;
18259;SDS011;9256;52.236;5.712;2024-02-15T05:12:57;34.83;;;11.02;;
18259;SDS011;9256;52.236;5.712;2024-02-15T05:15:30;34.15;;;11.40;;
18259;SDS011;9256;52.236;5.712;2024-02-15T05:17:59;24.73;;;10.63;;
18259;SDS011;9256;52.236;5.712;2024-02-15T05:20:33;31.20;;;11.20;;
18259;SDS011;9256;52.236;5.712;2024-02-15T05:23:31;35.45;;;11.48;;
18259;SDS011;9256;52.236;5.712;2024-02-15T05:26:28;35.10;;;11.68;;
18259;SDS011;9256;52.236;5.712;2024-02-15T05:28:59;32.40;;;11.70;;
18259;SDS011;9256;52.236;5.712;2024-02-15T05:31:39;34.08;;;10.98;;
18259;SDS011;9256;52.236;5.712;2024-02-15T05:34:22;37.22;;;11.27;;
18259;SDS011;9256;52.236;5.712;2024-02-15T05:36:59;27.98;;;11.95;;
18259;SDS011;9256;52.236;5.712;2024-02-15T05:39:28;32.42;;;11.43;;
18259;SDS011;9256;52.236;5.712;2024-02-15T05:42:03;34.75;;;14.25;;
18259;SDS011;9256;52.236;5.712;2024-02-15T05:44:41;25.92;;;11.57;;
18259;SDS011;9256;52.236;5.712;2024-02-15T05:47:32;37.17;;;11.27;;
18259;SDS011;9256;52.236;5.712;2024-02-15T05:50:11;27.90;;;10.80;;
18259;SDS011;9256;52.236;5.712;2024-02-15T05:52:51;29.05;;;10.98;;
18259;SDS011;9256;52.236;5.712;2024-02-15T05:55:24;34.28;;;12.75;;
18259;SDS011;9256;52.236;5.712;2024-02-15T05:58:00;33.38;;;11.70;;
18259;SDS011;9256;52.236;5.712;2024-02-15T06:00:37;30.70;;;11.40;;
18259;SDS011;9256;52.236;5.712;2024-02-15T06:03:09;31.42;;;11.13;;
18259;SDS011;9256;52.236;5.712;2024-02-15T06:05:53;26.52;;;11.18;;
18259;SDS011;9256;52.236;5.712;2024-02-15T06:08:45;34.55;;;15.55;;
18259;SDS011;9256;52.236;5.712;2024-02-15T06:11:24;28.83;;;12.13;;
18259;SDS011;9256;52.236;5.712;2024-02-15T06:13:57;29.15;;;11.88;;
18259;SDS011;9256;52.236;5.712;2024-02-15T06:16:33;29.92;;;11.27;;
18259;SDS011;9256;52.236;5.712;2024-02-15T06:19:06;33.65;;;11.82;;
18259;SDS011;9256;52.236;5.712;2024-02-15T06:21:34;33.13;;;11.45;;
18259;SDS011;9256;52.236;5.712;2024-02-15T06:24:12;28.48;;;11.60;;
18259;SDS011;9256;52.236;5.712;2024-02-15T06:26:45;25.50;;;11.60;;
18259;SDS011;9256;52.236;5.712;2024-02-15T06:29:24;27.00;;;11.80;;
18259;SDS011;9256;52.236;5.712;2024-02-15T06:32:09;29.33;;;11.20;;
18259;SDS011;9256;52.236;5.712;2024-02-15T06:34:55;26.73;;;11.13;;
18259;SDS011;9256;52.236;5.712;2024-02-15T06:37:54;28.55;;;11.60;;
18259;SDS011;9256;52.236;5.712;2024-02-15T06:40:41;31.63;;;11.75;;
18259;SDS011;9256;52.236;5.712;2024-02-15T06:43:11;35.33;;;12.10;;
18259;SDS011;9256;52.236;5.712;2024-02-15T06:45:49;29.00;;;11.77;;
18259;SDS011;9256;52.236;5.712;2024-02-15T06:48:41;33.35;;;11.95;;
18259;SDS011;9256;52.236;5.712;2024-02-15T06:51:14;32.03;;;12.43;;
18259;SDS011;9256;52.236;5.712;2024-02-15T06:53:48;29.02;;;12.00;;
18259;SDS011;9256;52.236;5.712;2024-02-15T06:56:20;32.17;;;12.40;;
18259;SDS011;9256;52.236;5.712;2024-02-15T06:59:21;28.05;;;12.38;;
18259;SDS011;9256;52.236;5.712;2024-02-15T07:01:44;30.33;;;12.15;;
18259;SDS011;9256;52.236;5.712;2024-02-15T07:04:21;32.60;;;14.55;;
18259;SDS011;9256;52.236;5.712;2024-02-15T07:07:02;31.50;;;12.43;;
18259;SDS011;9256;52.236;5.712;2024-02-15T07:09:39;29.45;;;12.50;;
18259;SDS011;9256;52.236;5.712;2024-02-15T07:12:20;30.48;;;12.95;;
18259;SDS011;9256;52.236;5.712;2024-02-15T07:14:51;35.47;;;13.65;;
18259;SDS011;9256;52.236;5.712;2024-02-15T07:17:23;34.63;;;13.57;;
18259;SDS011;9256;52.236;5.712;2024-02-15T07:19:56;37.58;;;15.20;;
18259;SDS011;9256;52.236;5.712;2024-02-15T07:22:41;31.00;;;13.27;;
18259;SDS011;9256;52.236;5.712;2024-02-15T07:25:10;29.17;;;12.77;;
18259;SDS011;9256;52.236;5.712;2024-02-15T07:27:56;27.67;;;13.05;;
18259;SDS011;9256;52.236;5.712;2024-02-15T07:30:34;26.80;;;12.23;;
18259;SDS011;9256;52.236;5.712;2024-02-15T07:33:01;29.15;;;13.00;;
18259;SDS011;9256;52.236;5.712;2024-02-15T07:35:31;31.92;;;13.23;;
18259;SDS011;9256;52.236;5.712;2024-02-15T07:38:04;31.05;;;13.25;;
18259;SDS011;9256;52.236;5.712;2024-02-15T07:40:32;29.35;;;12.57;;
18259;SDS011;9256;52.236;5.712;2024-02-15T07:43:06;28.48;;;12.88;;
18259;SDS011;9256;52.236;5.712;2024-02-15T07:45:38;26.30;;;13.20;;
18259;SDS011;9256;52.236;5.712;2024-02-15T07:48:07;32.28;;;14.35;;
18259;SDS011;9256;52.236;5.712;2024-02-15T07:50:34;48.85;;;20.60;;
18259;SDS011;9256;52.236;5.712;2024-02-15T07:53:23;60.13;;;25.00;;
18259;SDS011;9256;52.236;5.712;2024-02-15T07:56:05;42.85;;;18.40;;
18259;SDS011;9256;52.236;5.712;2024-02-15T07:58:51;186.35;;;52.20;;
18259;SDS011;9256;52.236;5.712;2024-02-15T08:01:21;33.55;;;15.35;;
18259;SDS011;9256;52.236;5.712;2024-02-15T08:03:53;85.68;;;27.92;;
18259;SDS011;9256;52.236;5.712;2024-02-15T08:06:23;34.25;;;14.75;;
18259;SDS011;9256;52.236;5.712;2024-02-15T08:08:54;47.38;;;18.08;;
18259;SDS011;9256;52.236;5.712;2024-02-15T08:11:38;32.17;;;14.48;;
18259;SDS011;9256;52.236;5.712;2024-02-15T08:14:14;27.65;;;13.27;;
18259;SDS011;9256;52.236;5.712;2024-02-15T08:17:23;26.55;;;12.77;;
18259;SDS011;9256;52.236;5.712;2024-02-15T08:19:39;28.73;;;15.63;;
18259;SDS011;9256;52.236;5.712;2024-02-15T08:22:12;25.88;;;12.55;;
18259;SDS011;9256;52.236;5.712;2024-02-15T08:24:52;25.83;;;12.15;;
18259;SDS011;9256;52.236;5.712;2024-02-15T08:27:36;21.17;;;11.10;;
18259;SDS011;9256;52.236;5.712;2024-02-15T08:30:19;21.58;;;11.02;;
18259;SDS011;9256;52.236;5.712;2024-02-15T08:33:19;25.25;;;10.95;;
18259;SDS011;9256;52.236;5.712;2024-02-15T08:35:51;20.30;;;10.80;;
18259;SDS011;9256;52.236;5.712;2024-02-15T08:38:30;20.00;;;10.73;;
18259;SDS011;9256;52.236;5.712;2024-02-15T08:41:01;23.58;;;9.98;;
18259;SDS011;9256;52.236;5.712;2024-02-15T08:43:36;19.95;;;10.15;;
18259;SDS011;9256;52.236;5.712;2024-02-15T08:46:23;27.42;;;16.27;;
18259;SDS011;9256;52.236;5.712;2024-02-15T08:49:01;45.33;;;18.77;;
18259;SDS011;9256;52.236;5.712;2024-02-15T08:51:38;27.52;;;12.50;;
18259;SDS011;9256;52.236;5.712;2024-02-15T08:54:07;89.30;;;30.05;;
18259;SDS011;9256;52.236;5.712;2024-02-15T08:56:54;58.30;;;22.30;;
18259;SDS011;9256;52.236;5.712;2024-02-15T08:59:28;36.20;;;15.05;;
18259;SDS011;9256;52.236;5.712;2024-02-15T09:02:00;34.00;;;14.18;;
18259;SDS011;9256;52.236;5.712;2024-02-15T09:04:36;20.98;;;10.02;;
18259;SDS011;9256;52.236;5.712;2024-02-15T09:07:05;15.77;;;8.73;;
18259;SDS011;9256;52.236;5.712;2024-02-15T09:09:36;14.95;;;7.97;;
18259;SDS011;9256;52.236;5.712;2024-02-15T09:12:09;16.70;;;8.35;;
18259;SDS011;9256;52.236;5.712;2024-02-15T09:14:51;13.02;;;7.18;;
18259;SDS011;9256;52.236;5.712;2024-02-15T09:20:19;11.45;;;6.80;;
18259;SDS011;9256;52.236;5.712;2024-02-15T09:22:55;12.35;;;6.85;;
18259;SDS011;9256;52.236;5.712;2024-02-15T09:25:26;11.20;;;6.20;;
18259;SDS011;9256;52.236;5.712;2024-02-15T09:28:18;10.95;;;5.90;;
18259;SDS011;9256;52.236;5.712;2024-02-15T09:30:50;10.85;;;6.10;;
18259;SDS011;9256;52.236;5.712;2024-02-15T09:33:26;10.65;;;5.88;;
18259;SDS011;9256;52.236;5.712;2024-02-15T09:35:57;10.35;;;5.85;;
18259;SDS011;9256;52.236;5.712;2024-02-15T09:38:37;7.88;;;5.00;;
18259;SDS011;9256;52.236;5.712;2024-02-15T09:41:29;10.68;;;5.47;;
18259;SDS011;9256;52.236;5.712;2024-02-15T09:44:05;8.00;;;4.68;;
18259;SDS011;9256;52.236;5.712;2024-02-15T09:46:33;10.07;;;5.20;;
18259;SDS011;9256;52.236;5.712;2024-02-15T09:49:08;9.63;;;5.13;;
18259;SDS011;9256;52.236;5.712;2024-02-15T09:51:46;9.52;;;4.93;;
18259;SDS011;9256;52.236;5.712;2024-02-15T09:54:31;11.15;;;6.60;;
18259;SDS011;9256;52.236;5.712;2024-02-15T09:57:01;10.82;;;5.63;;
18259;SDS011;9256;52.236;5.712;2024-02-15T10:00:03;11.63;;;5.90;;
18259;SDS011;9256;52.236;5.712;2024-02-15T10:02:33;11.60;;;5.97;;
18259;SDS011;9256;52.236;5.712;2024-02-15T10:05:23;16.33;;;7.60;;
18259;SDS011;9256;52.236;5.712;2024-02-15T10:08:04;16.27;;;7.40;;
18259;SDS011;9256;52.236;5.712;2024-02-15T10:11:05;22.70;;;12.77;;
18259;SDS011;9256;52.236;5.712;2024-02-15T10:13:38;21.73;;;10.70;;
18259;SDS011;9256;52.236;5.712;2024-02-15T10:16:21;31.08;;;15.95;;
18259;SDS011;9256;52.236;5.712;2024-02-15T10:19:08;48.30;;;23.80;;
18259;SDS011;9256;52.236;5.712;2024-02-15T10:21:47;44.60;;;21.50;;
18259;SDS011;9256;52.236;5.712;2024-02-15T10:24:27;39.67;;;20.52;;
18259;SDS011;9256;52.236;5.712;2024-02-15T10:27:00;43.03;;;23.38;;
18259;SDS011;9256;52.236;5.712;2024-02-15T10:29:32;43.58;;;23.15;;
18259;SDS011;9256;52.236;5.712;2024-02-15T10:32:00;52.43;;;29.33;;
18259;SDS011;9256;52.236;5.712;2024-02-15T10:34:35;39.53;;;21.33;;
18259;SDS011;9256;52.236;5.712;2024-02-15T10:37:52;31.63;;;15.75;;
18259;SDS011;9256;52.236;5.712;2024-02-15T10:40:39;30.42;;;15.05;;
18259;SDS011;9256;52.236;5.712;2024-02-15T10:43:37;27.27;;;14.10;;
18259;SDS011;9256;52.236;5.712;2024-02-15T10:46:18;23.92;;;13.05;;
18259;SDS011;9256;52.236;5.712;2024-02-15T10:48:53;26.42;;;13.52;;
18259;SDS011;9256;52.236;5.712;2024-02-15T10:51:28;28.05;;;14.85;;
18259;SDS011;9256;52.236;5.712;2024-02-15T10:54:11;30.67;;;16.70;;
18259;SDS011;9256;52.236;5.712;2024-02-15T10:56:43;37.65;;;20.05;;
18259;SDS011;9256;52.236;5.712;2024-02-15T10:59:16;40.92;;;20.35;;
18259;SDS011;9256;52.236;5.712;2024-02-15T11:01:46;36.35;;;20.10;;
18259;SDS011;9256;52.236;5.712;2024-02-15T11:04:19;33.08;;;17.35;;
18259;SDS011;9256;52.236;5.712;2024-02-15T11:06:56;31.00;;;15.85;;
18259;SDS011;9256;52.236;5.712;2024-02-15T11:09:28;29.00;;;14.55;;
18259;SDS011;9256;52.236;5.712;2024-02-15T11:12:35;28.60;;;13.82;;
18259;SDS011;9256;52.236;5.712;2024-02-15T11:15:03;23.35;;;12.23;;
18259;SDS011;9256;52.236;5.712;2024-02-15T11:17:49;25.92;;;12.20;;
18259;SDS011;9256;52.236;5.712;2024-02-15T11:23:26;26.20;;;11.75;;
18259;SDS011;9256;52.236;5.712;2024-02-15T11:26:04;19.90;;;10.13;;
18259;SDS011;9256;52.236;5.712;2024-02-15T11:28:46;22.48;;;10.50;;
18259;SDS011;9256;52.236;5.712;2024-02-15T11:37:09;25.15;;;9.82;;
18259;SDS011;9256;52.236;5.712;2024-02-15T11:39:40;23.58;;;9.45;;
18259;SDS011;9256;52.236;5.712;2024-02-15T11:42:27;21.65;;;10.18;;
18259;SDS011;9256;52.236;5.712;2024-02-15T11:45:02;23.83;;;10.35;;
18259;SDS011;9256;52.236;5.712;2024-02-15T11:47:33;26.52;;;10.27;;
18259;SDS011;9256;52.236;5.712;2024-02-15T11:50:16;18.95;;;9.02;;
18259;SDS011;9256;52.236;5.712;2024-02-15T11:52:47;21.30;;;8.80;;
18259;SDS011;9256;52.236;5.712;2024-02-15T11:55:18;17.10;;;8.95;;
18259;SDS011;9256;52.236;5.712;2024-02-15T11:57:56;15.60;;;8.60;;
18259;SDS011;9256;52.236;5.712;2024-02-15T12:00:30;20.20;;;9.48;;
18259;SDS011;9256;52.236;5.712;2024-02-15T12:03:16;21.65;;;9.50;;
18259;SDS011;9256;52.236;5.712;2024-02-15T12:06:05;25.10;;;11.95;;
18259;SDS011;9256;52.236;5.712;2024-02-15T12:08:50;25.92;;;11.90;;
18259;SDS011;9256;52.236;5.712;2024-02-15T12:11:37;24.38;;;11.60;;
18259;SDS011;9256;52.236;5.712;2024-02-15T12:14:28;24.63;;;12.13;;
18259;SDS011;9256;52.236;5.712;2024-02-15T12:17:23;26.48;;;12.93;;
18259;SDS011;9256;52.236;5.712;2024-02-15T12:20:08;46.42;;;19.55;;
18259;SDS011;9256;52.236;5.712;2024-02-15T12:22:39;37.47;;;18.00;;
18259;SDS011;9256;52.236;5.712;2024-02-15T12:25:13;38.58;;;18.35;;
18259;SDS011;9256;52.236;5.712;2024-02-15T12:27:42;30.25;;;14.38;;
18259;SDS011;9256;52.236;5.712;2024-02-15T12:30:15;36.78;;;15.75;;
18259;SDS011;9256;52.236;5.712;2024-02-15T12:32:52;47.28;;;18.92;;
18259;SDS011;9256;52.236;5.712;2024-02-15T12:35:47;64.95;;;23.17;;
18259;SDS011;9256;52.236;5.712;2024-02-15T12:38:19;29.77;;;14.20;;
18259;SDS011;9256;52.236;5.712;2024-02-15T12:40:51;24.77;;;12.40;;
18259;SDS011;9256;52.236;5.712;2024-02-15T12:43:23;93.35;;;33.20;;
18259;SDS011;9256;52.236;5.712;2024-02-15T12:45:54;37.90;;;15.90;;
18259;SDS011;9256;52.236;5.712;2024-02-15T12:48:37;44.13;;;17.77;;
18259;SDS011;9256;52.236;5.712;2024-02-15T12:51:49;25.65;;;12.88;;
18259;SDS011;9256;52.236;5.712;2024-02-15T12:54:07;19.73;;;10.00;;
18259;SDS011;9256;52.236;5.712;2024-02-15T12:56:48;21.02;;;8.38;;
18259;SDS011;9256;52.236;5.712;2024-02-15T12:59:17;17.92;;;8.93;;
18259;SDS011;9256;52.236;5.712;2024-02-15T13:01:47;23.58;;;10.23;;
18259;SDS011;9256;52.236;5.712;2024-02-15T13:04:23;39.22;;;14.93;;
18259;SDS011;9256;52.236;5.712;2024-02-15T13:06:57;78.20;;;26.45;;
18259;SDS011;9256;52.236;5.712;2024-02-15T13:09:25;21.15;;;9.85;;
18259;SDS011;9256;52.236;5.712;2024-02-15T13:11:52;19.95;;;8.38;;
18259;SDS011;9256;52.236;5.712;2024-02-15T13:14:19;19.35;;;7.70;;
18259;SDS011;9256;52.236;5.712;2024-02-15T13:16:56;17.45;;;7.13;;
18259;SDS011;9256;52.236;5.712;2024-02-15T13:19:24;15.57;;;6.10;;
18259;SDS011;9256;52.236;5.712;2024-02-15T13:21:51;15.00;;;5.70;;
18259;SDS011;9256;52.236;5.712;2024-02-15T13:24:39;13.75;;;5.35;;
18259;SDS011;9256;52.236;5.712;2024-02-15T13:27:13;13.02;;;5.43;;
18259;SDS011;9256;52.236;5.712;2024-02-15T13:29:47;13.13;;;4.60;;
18259;SDS011;9256;52.236;5.712;2024-02-15T13:32:24;10.98;;;4.80;;
18259;SDS011;9256;52.236;5.712;2024-02-15T13:34:51;10.35;;;4.18;;
18259;SDS011;9256;52.236;5.712;2024-02-15T13:37:32;10.93;;;4.47;;
18259;SDS011;9256;52.236;5.712;2024-02-15T13:40:03;8.98;;;4.40;;
18259;SDS011;9256;52.236;5.712;2024-02-15T13:42:40;13.02;;;4.70;;
18259;SDS011;9256;52.236;5.712;2024-02-15T13:45:12;9.70;;;4.30;;
18259;SDS011;9256;52.236;5.712;2024-02-15T13:47:41;11.98;;;5.35;;
18259;SDS011;9256;52.236;5.712;2024-02-15T13:50:11;67.57;;;24.98;;
18259;SDS011;9256;52.236;5.712;2024-02-15T13:52:39;14.30;;;6.57;;
18259;SDS011;9256;52.236;5.712;2024-02-15T13:55:08;16.63;;;5.40;;
18259;SDS011;9256;52.236;5.712;2024-02-15T13:57:37;17.63;;;7.20;;
18259;SDS011;9256;52.236;5.712;2024-02-15T14:00:05;13.98;;;5.75;;
18259;SDS011;9256;52.236;5.712;2024-02-15T14:02:38;16.55;;;6.13;;
18259;SDS011;9256;52.236;5.712;2024-02-15T14:05:08;11.57;;;4.65;;
18259;SDS011;9256;52.236;5.712;2024-02-15T14:07:36;19.00;;;7.95;;
18259;SDS011;9256;52.236;5.712;2024-02-15T14:10:04;39.05;;;15.38;;
18259;SDS011;9256;52.236;5.712;2024-02-15T14:12:32;11.85;;;4.65;;
18259;SDS011;9256;52.236;5.712;2024-02-15T14:14:59;24.98;;;9.43;;
18259;SDS011;9256;52.236;5.712;2024-02-15T14:17:26;17.65;;;7.03;;
18259;SDS011;9256;52.236;5.712;2024-02-15T14:19:55;41.40;;;17.75;;
18259;SDS011;9256;52.236;5.712;2024-02-15T14:22:26;12.52;;;4.85;;
18259;SDS011;9256;52.236;5.712;2024-02-15T14:24:54;15.27;;;4.32;;
18259;SDS011;9256;52.236;5.712;2024-02-15T14:27:21;6.82;;;3.13;;
18259;SDS011;9256;52.236;5.712;2024-02-15T14:29:48;12.52;;;3.78;;
18259;SDS011;9256;52.236;5.712;2024-02-15T14:32:29;11.68;;;3.65;;
18259;SDS011;9256;52.236;5.712;2024-02-15T14:35:15;9.50;;;3.30;;
18259;SDS011;9256;52.236;5.712;2024-02-15T14:37:43;8.48;;;3.00;;
18259;SDS011;9256;52.236;5.712;2024-02-15T14:40:11;9.07;;;3.45;;
18259;SDS011;9256;52.236;5.712;2024-02-15T14:42:40;9.02;;;4.00;;
18259;SDS011;9256;52.236;5.712;2024-02-15T14:45:08;10.00;;;4.00;;
18259;SDS011;9256;52.236;5.712;2024-02-15T14:47:36;7.00;;;3.20;;
18259;SDS011;9256;52.236;5.712;2024-02-15T14:50:05;10.20;;;3.70;;
18259;SDS011;9256;52.236;5.712;2024-02-15T14:52:38;7.82;;;3.13;;
18259;SDS011;9256;52.236;5.712;2024-02-15T14:55:10;9.32;;;3.38;;
18259;SDS011;9256;52.236;5.712;2024-02-15T14:57:38;7.68;;;3.10;;
18259;SDS011;9256;52.236;5.712;2024-02-15T15:00:06;7.68;;;3.60;;
18259;SDS011;9256;52.236;5.712;2024-02-15T15:02:37;9.18;;;3.50;;
18259;SDS011;9256;52.236;5.712;2024-02-15T15:05:04;10.35;;;3.35;;
18259;SDS011;9256;52.236;5.712;2024-02-15T15:07:51;8.20;;;3.30;;
18259;SDS011;9256;52.236;5.712;2024-02-15T15:10:35;8.55;;;3.40;;
18259;SDS011;9256;52.236;5.712;2024-02-15T15:13:19;8.57;;;3.63;;
18259;SDS011;9256;52.236;5.712;2024-02-15T15:15:48;17.88;;;6.50;;
18259;SDS011;9256;52.236;5.712;2024-02-15T15:18:15;10.30;;;4.63;;
18259;SDS011;9256;52.236;5.712;2024-02-15T15:20:42;11.88;;;5.03;;
18259;SDS011;9256;52.236;5.712;2024-02-15T15:23:11;14.10;;;6.75;;
18259;SDS011;9256;52.236;5.712;2024-02-15T15:25:38;15.95;;;6.93;;
18259;SDS011;9256;52.236;5.712;2024-02-15T15:28:06;12.45;;;5.88;;
18259;SDS011;9256;52.236;5.712;2024-02-15T15:30:33;22.52;;;8.50;;
18259;SDS011;9256;52.236;5.712;2024-02-15T15:33:01;16.65;;;5.70;;
18259;SDS011;9256;52.236;5.712;2024-02-15T15:35:28;12.65;;;4.40;;
18259;SDS011;9256;52.236;5.712;2024-02-15T15:37:55;8.40;;;4.65;;
18259;SDS011;9256;52.236;5.712;2024-02-15T15:40:24;12.50;;;4.70;;
18259;SDS011;9256;52.236;5.712;2024-02-15T15:42:51;11.38;;;4.35;;
18259;SDS011;9256;52.236;5.712;2024-02-15T15:45:19;7.60;;;3.33;;
18259;SDS011;9256;52.236;5.712;2024-02-15T15:47:48;9.80;;;4.00;;
18259;SDS011;9256;52.236;5.712;2024-02-15T15:50:16;9.20;;;3.53;;